Minerva Libra — SVAA7 — position and weather

sailwx.info

Track history (hours):
 
Tides and Currents Weather Stations Pressure Air Temp Water Temp Dewpoint Dewpoint Depression Visibility Wind Speed Wind Dir Waves Ship Positions

Minerva Libra

Last reported at 2016-Jun-26 00:11 UTC. Time now 2016-Jun-27 16:55 UTC.
Position N 43°20' E 004°56'.

Length 250 m; draft 12.7 m.

Type: Tanker. MMSI: 240766000.

Date/timePositionNaut miles runAvg speedWind from/ knotsBaromVisibWave heightAir tempDewpointWater temp
2016-Jun-26 00:11N 43°20' E 004°56'32912.2
2016-Jun-24 21:09N 38°33' E 008°31'912.3
2016-Jun-24 20:27N 38°29' E 008°40'1112.4
2016-Jun-24 19:33N 38°26' E 008°54'1412.9
2016-Jun-24 18:29N 38°20' E 009°09'1212.8
2016-Jun-24 17:33N 38°14' E 009°22'1312.5
2016-Jun-24 16:33N 38°08' E 009°37'1512.5
2016-Jun-24 15:22N 38°01' E 009°53'1112.1
2016-Jun-24 14:26N 37°56' E 010°06'16612.0
2016-Jun-24 00:33N 36°40' E 013°12'1211.9
2016-Jun-23 23:33N 36°38' E 013°27'1612.3
2016-Jun-23 22:15N 36°35' E 013°46'912.8
2016-Jun-23 21:33N 36°32' E 013°57'1312.8
2016-Jun-23 20:33N 36°30' E 014°12'1312.6
2016-Jun-23 19:33N 36°27' E 014°28'1312.5
2016-Jun-23 18:33N 36°25' E 014°43'1212.6
2016-Jun-23 17:33N 36°22' E 014°58'1212.4
2016-Jun-23 16:33N 36°21' E 015°14'24012.6
2016-Jun-22 21:33N 36°19' E 020°11'22211.1
2016-Jun-22 01:32N 37°40' E 024°30'1313.5
2016-Jun-22 00:33N 37°53' E 024°35'270 8.9
2016-Jun-20 18:19N 40°55' E 028°53'445 9.4
2016-Jun-18 19:05N 44°34' E 037°40'2 4.7
2016-Jun-18 18:34N 44°36' E 037°42'0 0.4
2016-Jun-18 17:24N 44°36' E 037°42'0 0.3
2016-Jun-18 16:33N 44°36' E 037°43'0 0.1
2016-Jun-18 15:34N 44°36' E 037°43'4 4.4
2016-Jun-18 14:34N 44°37' E 037°37'3 0.2
2016-Jun-17 22:33N 44°35' E 037°36'1 1.4
2016-Jun-17 21:33N 44°34' E 037°38'2 1.7
2016-Jun-17 20:33N 44°32' E 037°39'0 0.4
2016-Jun-17 19:33N 44°32' E 037°39'0 0.4
2016-Jun-17 18:33N 44°32' E 037°40'5 5.1
2016-Jun-17 17:33N 44°33' E 037°47'6 6.0
2016-Jun-17 16:33N 44°36' E 037°54'0 0.0
2016-Jun-17 15:33N 44°36' E 037°54'0 0.0
2016-Jun-17 14:30N 44°36' E 037°54'0 0.0
2016-Jun-17 13:33N 44°36' E 037°54'0 0.0
2016-Jun-17 12:33N 44°36' E 037°54'0 0.0
2016-Jun-17 11:33N 44°36' E 037°54'0 0.0
2016-Jun-17 10:33N 44°36' E 037°54'0 0.0
2016-Jun-17 09:33N 44°36' E 037°54'0 0.0
2016-Jun-17 08:33N 44°36' E 037°54'0 0.0
2016-Jun-17 07:33N 44°36' E 037°54'0 0.0
2016-Jun-17 06:33N 44°36' E 037°54'0 0.0
2016-Jun-17 05:33N 44°36' E 037°54'0 0.0
2016-Jun-17 04:33N 44°36' E 037°54'0 0.0
2016-Jun-17 03:33N 44°36' E 037°54'0 0.0
2016-Jun-17 02:33N 44°36' E 037°54'0 0.0
2016-Jun-17 01:33N 44°36' E 037°54'0 0.0
2016-Jun-17 00:33N 44°36' E 037°54'0 0.0
2016-Jun-16 23:33N 44°36' E 037°54'0 0.0
2016-Jun-16 22:30N 44°36' E 037°54'0 0.0
2016-Jun-16 21:33N 44°36' E 037°54'0 0.0
2016-Jun-16 20:33N 44°36' E 037°54'0 0.0
2016-Jun-16 19:30N 44°36' E 037°54'0 0.0
2016-Jun-16 18:30N 44°36' E 037°54'0 0.0
2016-Jun-16 17:33N 44°36' E 037°54'0 0.4
2016-Jun-16 16:34N 44°36' E 037°54'8 7.6
2016-Jun-16 15:33N 44°37' E 037°43'1 0.7
2016-Jun-16 14:34N 44°37' E 037°42'0 0.1
2016-Jun-16 13:34N 44°37' E 037°42'1311.4
2016-Jun-16 12:24N 44°25' E 037°34'  
Track history (hours):
 
Tides and Currents Weather Stations Pressure Air Temp Water Temp Dewpoint Dewpoint Depression Visibility Wind Speed Wind Dir Waves Ship Positions

Minerva Libra

Last reported at 2016-Jun-26 00:11 UTC. Time now 2016-Jun-27 16:55 UTC.
Position N 43°20' E 004°56'.

Length 250 m; draft 12.7 m.

Type: Tanker. MMSI: 240766000.

Date/timePositionNaut miles runAvg speedWind from/ knotsBaromVisibWave heightAir tempDewpointWater temp
2016-Jun-26 00:11N 43°20' E 004°56'32912.2
2016-Jun-24 21:09N 38°33' E 008°31'912.3
2016-Jun-24 20:27N 38°29' E 008°40'1112.4
2016-Jun-24 19:33N 38°26' E 008°54'1412.9
2016-Jun-24 18:29N 38°20' E 009°09'1212.8
2016-Jun-24 17:33N 38°14' E 009°22'1312.5
2016-Jun-24 16:33N 38°08' E 009°37'1512.5
2016-Jun-24 15:22N 38°01' E 009°53'1112.1
2016-Jun-24 14:26N 37°56' E 010°06'16612.0
2016-Jun-24 00:33N 36°40' E 013°12'1211.9
2016-Jun-23 23:33N 36°38' E 013°27'1612.3
2016-Jun-23 22:15N 36°35' E 013°46'912.8
2016-Jun-23 21:33N 36°32' E 013°57'1312.8
2016-Jun-23 20:33N 36°30' E 014°12'1312.6
2016-Jun-23 19:33N 36°27' E 014°28'1312.5
2016-Jun-23 18:33N 36°25' E 014°43'1212.6
2016-Jun-23 17:33N 36°22' E 014°58'1212.4
2016-Jun-23 16:33N 36°21' E 015°14'24012.6
2016-Jun-22 21:33N 36°19' E 020°11'22211.1
2016-Jun-22 01:32N 37°40' E 024°30'1313.5
2016-Jun-22 00:33N 37°53' E 024°35'270 8.9
2016-Jun-20 18:19N 40°55' E 028°53'445 9.4
2016-Jun-18 19:05N 44°34' E 037°40'2 4.7
2016-Jun-18 18:34N 44°36' E 037°42'0 0.4
2016-Jun-18 17:24N 44°36' E 037°42'0 0.3
2016-Jun-18 16:33N 44°36' E 037°43'0 0.1
2016-Jun-18 15:34N 44°36' E 037°43'4 4.4
2016-Jun-18 14:34N 44°37' E 037°37'3 0.2
2016-Jun-17 22:33N 44°35' E 037°36'1 1.4
2016-Jun-17 21:33N 44°34' E 037°38'2 1.7
2016-Jun-17 20:33N 44°32' E 037°39'0 0.4
2016-Jun-17 19:33N 44°32' E 037°39'0 0.4
2016-Jun-17 18:33N 44°32' E 037°40'5 5.1
2016-Jun-17 17:33N 44°33' E 037°47'6 6.0
2016-Jun-17 16:33N 44°36' E 037°54'0 0.0
2016-Jun-17 15:33N 44°36' E 037°54'0 0.0
2016-Jun-17 14:30N 44°36' E 037°54'0 0.0
2016-Jun-17 13:33N 44°36' E 037°54'0 0.0
2016-Jun-17 12:33N 44°36' E 037°54'0 0.0
2016-Jun-17 11:33N 44°36' E 037°54'0 0.0
2016-Jun-17 10:33N 44°36' E 037°54'0 0.0
2016-Jun-17 09:33N 44°36' E 037°54'0 0.0
2016-Jun-17 08:33N 44°36' E 037°54'0 0.0
2016-Jun-17 07:33N 44°36' E 037°54'0 0.0
2016-Jun-17 06:33N 44°36' E 037°54'0 0.0
2016-Jun-17 05:33N 44°36' E 037°54'0 0.0
2016-Jun-17 04:33N 44°36' E 037°54'0 0.0
2016-Jun-17 03:33N 44°36' E 037°54'0 0.0
2016-Jun-17 02:33N 44°36' E 037°54'0 0.0
2016-Jun-17 01:33N 44°36' E 037°54'0 0.0
2016-Jun-17 00:33N 44°36' E 037°54'0 0.0
2016-Jun-16 23:33N 44°36' E 037°54'0 0.0
2016-Jun-16 22:30N 44°36' E 037°54'0 0.0
2016-Jun-16 21:33N 44°36' E 037°54'0 0.0
2016-Jun-16 20:33N 44°36' E 037°54'0 0.0
2016-Jun-16 19:30N 44°36' E 037°54'0 0.0
2016-Jun-16 18:30N 44°36' E 037°54'0 0.0
2016-Jun-16 17:33N 44°36' E 037°54'0 0.4
2016-Jun-16 16:34N 44°36' E 037°54'8 7.6
2016-Jun-16 15:33N 44°37' E 037°43'1 0.7
2016-Jun-16 14:34N 44°37' E 037°42'0 0.1
2016-Jun-16 13:34N 44°37' E 037°42'1311.4
2016-Jun-16 12:24N 44°25' E 037°34'  

Dump ship's entire track history